Pagina principale
METAR-TAF:

METAR-TAF

Aeroporti :

Aeroporto di Pola

Pola, Croazia

latitudine: 44-54N, longitudine: 013-55E, altezza: 63 m

Osservazione

Il bollettino è stato emesso 11 minuti fa, alle 00:00 UTC
Vento 11 kt da ovest/sud-ovest
Temperature 15°C
Umidità 82%
Pressione 1008 hPa
Visibilità 10 km o più
Nuvoloso ad un'altezza di 5700 ft

METAR: LDPL 160000Z 25011KT 9999 BKN057 15/12 Q1008

Ora: 02:11 (00:11 UTC)

Previsione

Il bollettino è stato emesso 46 minuti fa, alle 23:25 UTC
Previsione valida dal 16 alle 00 UTC al 17 alle 00 UTC
Vento 9 kt da sud/sud-ovest
Visibilità 10 km o più
Nubi sparse ad un'altezza di 4000 ft

TAF: LDPL 152325Z 1600/1700 20009KT 9999 SCT040 TX20/1612Z TN13/1602Z

Osservazioni e previsioni meteorologiche di più di 4000 aeroporti (messaggi METAR e TAF).

Le stazioni disponibili sono rappresentate dai dischi gialli e rossi sulla carta.

Puntare il mouse per vedere il nome della stazione.

Clicca sopra per visualizzare le osservazioni e previsioni meteorologiche.

Per cambiare la mappa : fare clic sui pulsanti verdi con una croce nera per ingrandire, il pulsante verde con un trattino per diminuire, o sulla freccia verde per le mappe adiacenti.


METAR-TAF: